Time;durP1;ratioP1;P1;durP2;ratioP2;P2;SDS_P1;SDS_P2;PMS_P1;PMS_P2;Temp;Humidity;BMP_temperature;BMP_pressure;BME280_temperature;BME280_humidity;BME280_pressure;Samples;Min_cycle;Max_cycle;Signal;HPM_P1;HPM_P2
2022/04/02 00:02:20;;;;;;;31.65;18.92;;;-1.30;99.90;;;;;;5036421;28;20033;-87
2022/04/02 00:04:45;;;;;;;35.53;21.10;;;-1.30;99.90;;;;;;5019787;28;20396;-87
2022/04/02 00:07:11;;;;;;;35.42;19.13;;;-1.40;99.90;;;;;;5036318;28;20036;-88
2022/04/02 00:09:37;;;;;;;37.20;18.25;;;-1.30;99.90;;;;;;5020113;28;20068;-88
2022/04/02 00:12:03;;;;;;;34.63;18.02;;;-1.30;99.90;;;;;;5023019;28;20033;-87
2022/04/02 00:14:29;;;;;;;31.38;18.77;;;-1.30;99.90;;;;;;5040119;28;20669;-88
2022/04/02 00:16:55;;;;;;;29.85;17.27;;;-1.30;99.90;;;;;;5039465;28;20037;-88
2022/04/02 00:19:21;;;;;;;28.95;17.40;;;-1.30;99.90;;;;;;5039207;28;20036;-88
2022/04/02 00:21:47;;;;;;;28.65;15.85;;;-1.30;99.90;;;;;;5022992;28;20025;-89
2022/04/02 00:24:13;;;;;;;29.15;16.92;;;-1.30;99.90;;;;;;5023099;28;20557;-87
2022/04/02 00:26:39;;;;;;;30.73;17.05;;;-1.40;99.90;;;;;;5039425;28;20468;-87
2022/04/02 00:29:07;;;;;;;34.42;17.63;;;-1.30;99.90;;;;;;5039607;28;20021;-88
2022/04/02 00:31:32;;;;;;;30.77;16.92;;;-1.40;99.90;;;;;;5023138;28;20037;-88
2022/04/02 00:33:59;;;;;;;35.33;18.70;;;-1.40;99.90;;;;;;5039722;28;20039;-87
2022/04/02 00:36:24;;;;;;;31.73;17.10;;;-1.40;99.90;;;;;;5022156;28;20553;-88
2022/04/02 00:38:51;;;;;;;29.48;18.08;;;-1.40;99.90;;;;;;5022071;28;20053;-88
2022/04/02 00:41:16;;;;;;;33.60;18.85;;;-1.40;99.90;;;;;;5022409;28;20071;-88
2022/04/02 00:43:55;;;;;;;29.05;17.67;;;-1.40;99.90;;;;;;5038347;28;20459;-87
2022/04/02 00:46:21;;;;;;;33.33;17.85;;;-1.40;99.90;;;;;;5022031;28;20558;-87
2022/04/02 00:48:47;;;;;;;34.58;18.90;;;-1.40;99.90;;;;;;5038008;28;20035;-88
2022/04/02 00:51:16;;;;;;;34.03;18.70;;;-1.40;99.90;;;;;;5038470;28;20029;-88
2022/04/02 00:53:46;;;;;;;31.27;19.15;;;-1.40;99.90;;;;;;5038715;28;20407;-88
2022/04/02 00:56:14;;;;;;;33.70;18.92;;;-1.50;99.90;;;;;;5022034;28;20040;-88
2022/04/02 00:58:41;;;;;;;29.15;17.65;;;-1.50;99.90;;;;;;5037949;28;20170;-88
2022/04/02 01:01:12;;;;;;;;;;;-1.50;99.90;;;;;;5022637;28;20044;-88
2022/04/02 01:03:37;;;;;;;36.45;17.30;;;-1.50;99.90;;;;;;5038309;28;20364;-89
2022/04/02 01:06:04;;;;;;;36.80;18.67;;;-1.50;99.90;;;;;;5022043;28;20029;-88
2022/04/02 01:08:35;;;;;;;35.97;17.70;;;-1.50;99.90;;;;;;5022719;28;20025;-88
2022/04/02 01:11:02;;;;;;;35.67;17.80;;;-1.50;99.90;;;;;;5054674;28;20115;-88
2022/04/02 01:13:32;;;;;;;33.05;18.98;;;-1.50;99.90;;;;;;5021575;28;20068;-88
2022/04/02 01:16:13;;;;;;;38.65;19.80;;;-1.50;99.90;;;;;;5038081;28;20036;-88
2022/04/02 01:18:42;;;;;;;34.70;19.50;;;-1.50;99.90;;;;;;5021738;28;20110;-88
2022/04/02 01:21:12;;;;;;;32.05;19.15;;;-1.50;99.90;;;;;;5021343;28;20025;-88
2022/04/02 01:23:44;;;;;;;38.20;19.17;;;-1.50;99.90;;;;;;5022305;28;20484;-88
2022/04/02 01:26:14;;;;;;;34.40;19.38;;;-1.50;99.90;;;;;;5021967;28;20025;-88
2022/04/02 01:28:53;;;;;;;34.10;20.00;;;-1.50;99.90;;;;;;5037642;28;20037;-88
2022/04/02 01:31:24;;;;;;;35.45;19.70;;;-1.50;99.90;;;;;;5038118;28;20104;-88
2022/04/02 01:33:51;;;;;;;35.03;20.25;;;-1.50;99.90;;;;;;5037962;28;20731;-87
2022/04/02 01:36:19;;;;;;;34.53;19.73;;;-1.50;99.90;;;;;;5036872;28;20025;-87
2022/04/02 01:38:54;;;;;;;37.15;19.92;;;-1.50;99.90;;;;;;5037251;28;20116;-88
2022/04/02 01:41:24;;;;;;;36.50;19.17;;;-1.50;99.90;;;;;;5037985;28;20720;-87
2022/04/02 01:43:51;;;;;;;32.90;19.70;;;-1.60;99.90;;;;;;5020580;28;20813;-88
2022/04/02 01:46:16;;;;;;;34.67;19.15;;;-1.60;99.90;;;;;;5020395;28;20086;-88
2022/04/02 01:48:45;;;;;;;32.25;18.05;;;-1.60;99.90;;;;;;5020522;28;20492;-87
2022/04/02 01:51:12;;;;;;;34.30;18.02;;;-1.60;99.90;;;;;;5036960;28;20029;-88
2022/04/02 01:53:38;;;;;;;34.70;20.08;;;-1.60;99.90;;;;;;5037655;28;20041;-89
2022/04/02 01:56:10;;;;;;;32.70;18.75;;;-1.60;99.90;;;;;;5021737;28;20025;-88
2022/04/02 01:58:48;;;;;;;31.90;17.95;;;-1.60;99.90;;;;;;5021745;28;20037;-88
2022/04/02 02:01:19;;;;;;;33.75;18.08;;;-1.60;99.90;;;;;;5020849;28;20036;-88
2022/04/02 02:03:46;;;;;;;34.55;18.75;;;-1.60;99.90;;;;;;5036705;28;20033;-88
2022/04/02 02:06:12;;;;;;;31.10;18.15;;;-1.60;99.90;;;;;;5037428;28;20104;-88
2022/04/02 02:08:42;;;;;;;33.38;18.88;;;-1.60;99.90;;;;;;5020929;28;20059;-88
2022/04/02 02:11:23;;;;;;;33.20;16.63;;;-1.60;99.90;;;;;;5045318;28;20657;-88
2022/04/02 02:14:11;;;;;;;29.40;17.25;;;-1.60;99.90;;;;;;5021570;28;20025;-87
2022/04/02 02:16:42;;;;;;;30.80;17.13;;;-1.60;99.90;;;;;;5020467;28;20090;-88
2022/04/02 02:19:08;;;;;;;32.15;17.77;;;-1.60;99.90;;;;;;5036590;28;20464;-89
2022/04/02 02:21:34;;;;;;;32.50;18.38;;;-1.60;99.90;;;;;;5019787;28;20021;-88
2022/04/02 02:23:59;;;;;;;31.15;17.73;;;-1.60;99.90;;;;;;5036655;28;20486;-84
2022/04/02 02:26:26;;;;;;;30.30;16.95;;;-1.60;99.90;;;;;;5036486;28;20029;-85
2022/04/02 02:28:52;;;;;;;31.90;17.27;;;-1.60;99.90;;;;;;5019522;28;20079;-85
2022/04/02 02:31:34;;;;;;;32.35;17.00;;;-1.60;99.90;;;;;;5036134;28;20802;-85
2022/04/02 02:36:53;;;;;;;30.35;16.65;;;-1.60;99.90;;;;;;5035985;28;20396;-87
2022/04/02 02:39:19;;;;;;;30.13;16.48;;;-1.60;99.90;;;;;;5035763;28;20041;-87
2022/04/02 02:41:55;;;;;;;36.08;16.10;;;-1.60;99.90;;;;;;5021126;28;20082;-88
2022/04/02 02:44:29;;;;;;;29.80;16.55;;;-1.60;99.90;;;;;;5021106;28;20029;-88
2022/04/02 02:47:09;;;;;;;33.05;16.98;;;-1.50;99.90;;;;;;5021294;28;20024;-88
2022/04/02 02:49:38;;;;;;;27.35;16.77;;;-1.60;99.90;;;;;;5019833;28;20276;-88
2022/04/02 02:52:08;;;;;;;33.10;16.70;;;-1.60;99.90;;;;;;5020497;28;20029;-87
2022/04/02 02:54:34;;;;;;;26.90;15.73;;;-1.60;99.90;;;;;;5019806;28;20365;-87
2022/04/02 02:57:02;;;;;;;26.10;16.00;;;-1.50;99.90;;;;;;5018998;28;20082;-88
2022/04/02 02:59:27;;;;;;;31.88;15.52;;;-1.60;99.90;;;;;;5035968;28;20049;-87
2022/04/02 03:01:53;;;;;;;30.98;15.60;;;-1.60;99.90;;;;;;5019525;28;20060;-88
2022/04/02 03:04:21;;;;;;;28.95;15.57;;;-1.50;99.90;;;;;;5019340;28;20032;-88
2022/04/02 03:06:49;;;;;;;27.45;15.93;;;-1.50;99.90;;;;;;5019913;28;20506;-88
2022/04/02 03:09:17;;;;;;;31.33;16.90;;;-1.50;99.90;;;;;;5019828;28;20025;-88
2022/04/02 03:11:45;;;;;;;30.80;15.05;;;-1.50;99.90;;;;;;5019842;28;20025;-88
2022/04/02 03:14:38;;;;;;;24.67;15.80;;;-1.50;99.90;;;;;;5036117;28;20031;-89
2022/04/02 03:17:05;;;;;;;31.95;15.85;;;-1.50;99.90;;;;;;5019138;28;20044;-88
2022/04/02 03:19:31;;;;;;;32.55;16.13;;;-1.60;99.90;;;;;;5019307;28;20033;-88
2022/04/02 03:21:57;;;;;;;31.42;15.93;;;-1.50;99.90;;;;;;5019026;28;20032;-88
2022/04/02 03:24:23;;;;;;;27.90;15.18;;;-1.50;99.90;;;;;;5036189;28;20056;-88
2022/04/02 03:26:48;;;;;;;29.05;15.15;;;-1.60;99.90;;;;;;5019087;28;20111;-88
2022/04/02 03:29:24;;;;;;;35.72;15.07;;;-1.60;99.90;;;;;;5035614;28;20029;-88
2022/04/02 03:31:52;;;;;;;31.17;16.80;;;-1.60;99.90;;;;;;5019086;28;20029;-87
2022/04/02 03:34:17;;;;;;;25.83;15.02;;;-1.60;99.90;;;;;;5018808;28;20386;-88
2022/04/02 03:36:46;;;;;;;27.83;16.38;;;-1.60;99.90;;;;;;5019206;28;20484;-89
2022/04/02 03:39:12;;;;;;;25.42;15.77;;;-1.60;99.90;;;;;;5019014;28;20484;-88
2022/04/02 03:41:40;;;;;;;27.10;15.55;;;-1.60;99.90;;;;;;5018887;28;20044;-88
2022/04/02 03:44:06;;;;;;;25.90;15.07;;;-1.60;99.90;;;;;;5035160;28;20362;-88
2022/04/02 03:49:17;;;;;;;25.35;14.60;;;-1.60;99.90;;;;;;5033867;28;20036;-88
2022/04/02 03:51:43;;;;;;;23.75;14.55;;;-1.60;99.90;;;;;;5018816;28;20025;-87
2022/04/02 03:54:14;;;;;;;;;;;-1.60;99.90;;;;;;5019167;28;20120;-87
2022/04/02 03:56:46;;;;;;;27.02;14.00;;;-1.60;99.90;;;;;;5052023;28;19908;-88
2022/04/02 03:59:15;;;;;;;23.60;14.30;;;-1.60;99.90;;;;;;5014844;28;20078;-88
2022/04/02 04:01:44;;;;;;;25.08;13.80;;;-1.70;99.90;;;;;;5035484;28;20040;-87
2022/04/02 04:04:12;;;;;;;22.75;12.80;;;-1.70;99.90;;;;;;5018778;28;20079;-87
2022/04/02 04:06:38;;;;;;;22.80;14.43;;;-1.70;99.90;;;;;;5018882;28;20127;-88
2022/04/02 04:09:04;;;;;;;19.92;13.27;;;-1.60;99.90;;;;;;5017345;28;20379;-87
2022/04/02 04:11:33;;;;;;;26.92;14.25;;;-1.70;99.90;;;;;;5034976;28;20033;-88
2022/04/02 04:13:59;;;;;;;20.65;13.15;;;-1.70;99.90;;;;;;5018151;28;20033;-87
2022/04/02 04:16:26;;;;;;;24.02;13.15;;;-1.70;99.90;;;;;;5034338;28;20057;-87
2022/04/02 04:18:52;;;;;;;29.63;15.45;;;-1.60;99.90;;;;;;5017771;28;20606;-88
2022/04/02 04:21:18;;;;;;;22.20;13.88;;;-1.70;99.90;;;;;;5017989;28;20128;-88
2022/04/02 04:23:48;;;;;;;25.08;14.18;;;-1.60;99.90;;;;;;5018230;28;20503;-87
2022/04/02 04:26:14;;;;;;;21.15;13.27;;;-1.70;99.90;;;;;;5018029;28;20029;-88
2022/04/02 04:28:41;;;;;;;24.05;13.10;;;-1.60;99.90;;;;;;5017995;28;20518;-88
2022/04/02 04:31:09;;;;;;;22.13;11.48;;;-1.60;99.90;;;;;;5034533;28;20029;-87
2022/04/02 04:33:35;;;;;;;20.55;11.88;;;-1.60;99.90;;;;;;5018361;28;20029;-87
2022/04/02 04:36:02;;;;;;;24.50;12.88;;;-1.70;99.90;;;;;;5018202;28;20040;-87
2022/04/02 04:38:28;;;;;;;23.65;12.32;;;-1.70;99.90;;;;;;5017859;28;20067;-87
2022/04/02 04:40:58;;;;;;;22.27;12.48;;;-1.70;99.90;;;;;;5034697;28;20051;-88
2022/04/02 04:43:24;;;;;;;21.98;12.00;;;-1.70;99.90;;;;;;5018214;28;20103;-88
2022/04/02 04:45:51;;;;;;;20.23;12.25;;;-1.60;99.90;;;;;;5018171;28;20120;-88
2022/04/02 04:48:20;;;;;;;21.92;12.20;;;-1.70;99.90;;;;;;5017833;28;20037;-88
2022/04/02 04:50:52;;;;;;;26.77;12.18;;;-1.70;99.90;;;;;;5019101;28;20025;-88
2022/04/02 04:53:19;;;;;;;20.13;12.38;;;-1.70;99.90;;;;;;5018308;28;20033;-87
2022/04/02 04:55:46;;;;;;;22.20;12.27;;;-1.70;99.90;;;;;;5035316;28;20384;-87
2022/04/02 04:58:16;;;;;;;21.65;12.18;;;-1.70;99.90;;;;;;5022255;28;20033;-88
2022/04/02 05:00:43;;;;;;;22.38;10.10;;;-1.80;99.90;;;;;;5021258;28;20033;-88
2022/04/02 05:03:10;;;;;;;22.83;11.32;;;-1.70;99.90;;;;;;5021563;28;20083;-85
2022/04/02 05:05:41;;;;;;;17.20;10.80;;;-1.70;99.90;;;;;;5018162;28;20021;-84
2022/04/02 05:08:11;;;;;;;18.25;10.10;;;-1.70;99.90;;;;;;5021906;28;20037;-85
2022/04/02 05:10:40;;;;;;;19.85;11.20;;;-1.70;99.90;;;;;;5037222;28;20033;-84
2022/04/02 05:13:08;;;;;;;19.95;11.80;;;-1.80;99.90;;;;;;5021131;28;20116;-85
2022/04/02 05:15:36;;;;;;;20.13;10.65;;;-1.70;99.90;;;;;;5021170;28;20698;-85
2022/04/02 05:18:03;;;;;;;23.05;12.43;;;-1.70;99.90;;;;;;5020912;28;20033;-85
2022/04/02 05:20:30;;;;;;;22.27;10.32;;;-1.70;99.90;;;;;;5020433;28;20515;-84
2022/04/02 05:22:56;;;;;;;18.77;10.55;;;-1.70;99.90;;;;;;5036585;28;20033;-85
2022/04/02 05:25:22;;;;;;;14.85;10.20;;;-1.70;99.90;;;;;;5036450;28;20102;-85
2022/04/02 05:27:48;;;;;;;15.75;9.50;;;-1.60;99.90;;;;;;5020073;28;20163;-85
2022/04/02 05:30:15;;;;;;;18.52;9.80;;;-1.60;99.90;;;;;;5037223;28;20095;-84
2022/04/02 05:32:41;;;;;;;17.40;10.77;;;-1.60;99.90;;;;;;5037361;28;20032;-83
2022/04/02 05:35:08;;;;;;;15.73;10.13;;;-1.60;99.90;;;;;;5020828;28;20029;-85
2022/04/02 05:37:33;;;;;;;15.50;9.52;;;-1.60;99.90;;;;;;5019655;28;20090;-84
2022/04/02 05:39:59;;;;;;;25.27;10.45;;;-1.60;99.90;;;;;;5069733;28;20033;-84
2022/04/02 05:42:26;;;;;;;21.00;10.50;;;-1.60;99.90;;;;;;5020185;28;20032;-84
2022/04/02 05:44:53;;;;;;;18.85;9.93;;;-1.50;99.90;;;;;;5020396;28;20473;-84
2022/04/02 05:47:20;;;;;;;16.38;10.48;;;-1.50;99.90;;;;;;5020150;28;20028;-85
2022/04/02 05:49:51;;;;;;;18.35;10.30;;;-1.50;99.90;;;;;;5020376;28;20133;-84
2022/04/02 05:52:17;;;;;;;19.45;10.30;;;-1.50;99.90;;;;;;5020219;28;20480;-83
2022/04/02 05:54:42;;;;;;;17.75;10.85;;;-1.50;99.90;;;;;;5020068;28;20132;-84
2022/04/02 05:57:08;;;;;;;28.30;14.88;;;-1.40;99.90;;;;;;5036565;28;20457;-82
2022/04/02 05:59:34;;;;;;;23.23;11.45;;;-1.40;99.90;;;;;;5020006;28;20579;-83
2022/04/02 06:02:00;;;;;;;21.67;12.55;;;-1.30;99.90;;;;;;5020035;28;20115;-83
2022/04/02 06:04:28;;;;;;;30.25;19.20;;;-1.30;99.90;;;;;;5020340;28;20037;-85
2022/04/02 06:06:54;;;;;;;17.90;10.70;;;-1.20;99.90;;;;;;5035840;28;20453;-83
2022/04/02 06:09:20;;;;;;;30.80;17.23;;;-1.20;99.90;;;;;;5020032;28;20040;-84
2022/04/02 06:11:45;;;;;;;28.23;17.20;;;-1.10;99.90;;;;;;5035660;28;20029;-84
2022/04/02 06:14:13;;;;;;;18.90;9.63;;;-1.20;99.90;;;;;;5019550;28;20032;-84
2022/04/02 06:16:39;;;;;;;14.45;9.18;;;-1.20;99.90;;;;;;5015993;28;20062;-84
2022/04/02 06:19:05;;;;;;;13.90;9.15;;;-1.20;99.90;;;;;;5018200;28;20484;-84
2022/04/02 06:21:31;;;;;;;14.85;9.38;;;-1.20;99.90;;;;;;5019754;28;20032;-84
2022/04/02 06:23:56;;;;;;;14.00;9.50;;;-1.20;99.90;;;;;;5036317;28;20029;-84
2022/04/02 06:26:22;;;;;;;14.85;10.65;;;-1.20;99.90;;;;;;5017950;28;20031;-83
2022/04/02 06:28:48;;;;;;;22.23;13.15;;;-1.30;99.90;;;;;;5019314;28;20028;-83
2022/04/02 06:31:13;;;;;;;17.10;11.27;;;-1.20;99.90;;;;;;5018725;28;20025;-83
2022/04/02 06:33:42;;;;;;;14.82;9.35;;;-1.10;99.90;;;;;;5020204;28;20033;-83
2022/04/02 06:36:09;;;;;;;18.92;9.43;;;-1.00;99.90;;;;;;5019234;28;20075;-83
2022/04/02 06:38:36;;;;;;;17.60;9.98;;;-1.10;99.90;;;;;;5019442;28;20033;-83
2022/04/02 06:41:02;;;;;;;15.80;9.02;;;-1.00;99.90;;;;;;5035123;28;20051;-83
2022/04/02 06:43:27;;;;;;;13.77;8.18;;;-0.90;99.90;;;;;;5019162;28;20114;-83
2022/04/02 06:45:57;;;;;;;12.30;8.32;;;-0.80;99.90;;;;;;5019996;28;20029;-84
2022/04/02 06:48:23;;;;;;;10.43;7.35;;;-0.90;99.90;;;;;;5019667;28;20074;-84
2022/04/02 06:50:50;;;;;;;24.42;9.70;;;-1.00;99.90;;;;;;5019596;28;20055;-85
2022/04/02 06:53:15;;;;;;;19.90;10.25;;;-1.00;99.90;;;;;;5019532;28;20037;-84
2022/04/02 06:55:41;;;;;;;18.85;11.75;;;-1.00;99.90;;;;;;5019216;28;20060;-84
2022/04/02 06:58:08;;;;;;;18.63;11.13;;;-0.90;99.90;;;;;;5018426;28;20112;-84
2022/04/02 07:00:34;;;;;;;23.42;11.95;;;-0.90;99.90;;;;;;5018176;28;20047;-83
2022/04/02 07:03:00;;;;;;;26.98;12.60;;;-0.90;99.90;;;;;;5034720;28;20476;-84
2022/04/02 07:05:27;;;;;;;14.73;8.68;;;-0.70;99.90;;;;;;5018940;28;20045;-85
2022/04/02 07:07:52;;;;;;;21.30;11.25;;;-0.60;99.90;;;;;;5067505;28;20024;-85
2022/04/02 07:10:19;;;;;;;13.70;9.05;;;-0.50;99.90;;;;;;5017663;28;20144;-84
2022/04/02 07:12:45;;;;;;;21.73;9.75;;;-0.50;99.90;;;;;;5034382;28;20041;-84
2022/04/02 07:15:11;;;;;;;17.50;9.10;;;-0.50;99.90;;;;;;5034611;28;20520;-85
2022/04/02 07:17:36;;;;;;;15.13;7.93;;;-0.40;99.90;;;;;;5017866;28;20033;-84
2022/04/02 07:20:03;;;;;;;14.20;8.68;;;-0.50;99.90;;;;;;5013545;28;20060;-84
2022/04/02 07:22:29;;;;;;;13.77;7.07;;;-0.60;99.90;;;;;;5017594;28;20084;-85
2022/04/02 07:24:56;;;;;;;10.88;7.00;;;-0.60;99.90;;;;;;5050922;28;20473;-84
2022/04/02 07:27:25;;;;;;;10.90;7.00;;;-0.80;99.90;;;;;;5048425;28;20116;-84
2022/04/02 07:29:53;;;;;;;11.90;7.38;;;-0.90;99.90;;;;;;5018510;28;20064;-84
2022/04/02 07:32:19;;;;;;;30.77;9.48;;;-0.90;99.90;;;;;;5017652;28;20037;-84
2022/04/02 07:34:45;;;;;;;12.43;7.18;;;-0.80;99.90;;;;;;5018034;28;20025;-84
2022/04/02 07:37:49;;;;;;;26.73;14.23;;;-0.80;99.90;;;;;;5017895;28;20971;-84
2022/04/02 07:40:20;;;;;;;14.32;7.38;;;-0.80;99.90;;;;;;4958372;28;20066;-85
2022/04/02 07:43:19;;;;;;;16.80;8.88;;;-0.70;99.90;;;;;;5010349;28;20064;-84
2022/04/02 07:45:48;;;;;;;11.35;6.97;;;-0.50;99.90;;;;;;4966034;28;20038;-84
2022/04/02 07:48:17;;;;;;;11.90;7.65;;;-0.30;99.90;;;;;;5067556;28;20021;-84
2022/04/02 07:50:45;;;;;;;12.98;7.97;;;-0.20;99.90;;;;;;5018100;28;20029;-83
2022/04/02 07:53:35;;;;;;;14.75;7.05;;;-0.10;99.90;;;;;;5052619;28;20029;-85
2022/04/02 07:56:03;;;;;;;10.88;7.60;;;-0.10;99.90;;;;;;5051122;28;20039;-84
2022/04/02 07:58:32;;;;;;;12.80;7.20;;;-0.20;99.90;;;;;;5033800;28;20723;-84
2022/04/02 08:01:05;;;;;;;11.27;7.65;;;-0.40;99.90;;;;;;5034719;28;20463;-85
2022/04/02 08:03:33;;;;;;;12.20;8.18;;;-0.40;99.90;;;;;;5017428;28;20044;-83
2022/04/02 08:05:59;;;;;;;17.58;8.45;;;-0.40;99.90;;;;;;5017330;28;20434;-84
2022/04/02 08:08:26;;;;;;;14.70;7.90;;;-0.50;99.90;;;;;;5035361;28;20044;-84
2022/04/02 08:10:53;;;;;;;12.73;8.20;;;-0.40;99.90;;;;;;5017338;28;20033;-85
2022/04/02 08:13:21;;;;;;;12.90;7.75;;;-0.50;99.90;;;;;;5052164;28;20392;-85
2022/04/02 08:15:54;;;;;;;12.50;8.18;;;-0.60;99.90;;;;;;5033776;28;20118;-85
2022/04/02 08:18:26;;;;;;;16.27;8.25;;;-0.60;99.90;;;;;;5050268;28;20158;-84
2022/04/02 08:20:52;;;;;;;16.98;8.20;;;-0.40;99.90;;;;;;5015198;28;20530;-84
2022/04/02 08:23:23;;;;;;;13.02;7.32;;;-0.20;99.90;;;;;;5049508;28;20032;-83
2022/04/02 08:26:16;;;;;;;13.80;8.23;;;-0.20;99.90;;;;;;5017920;28;20175;-83
2022/04/02 08:28:58;;;;;;;12.10;7.15;;;-0.20;99.90;;;;;;5050344;28;20057;-84
2022/04/02 08:31:36;;;;;;;13.27;8.07;;;0.00;99.90;;;;;;5019584;28;20649;-84
2022/04/02 08:34:07;;;;;;;17.35;9.30;;;0.10;99.90;;;;;;5021303;28;20033;-84
2022/04/02 08:36:47;;;;;;;21.83;7.95;;;0.20;99.90;;;;;;5017310;28;20067;-84
2022/04/02 08:39:41;;;;;;;12.07;7.88;;;0.20;99.90;;;;;;5037914;28;20442;-84
2022/04/02 08:42:22;;;;;;;20.98;8.68;;;0.10;99.90;;;;;;5054599;28;20116;-84
2022/04/02 08:45:10;;;;;;;27.10;8.00;;;0.20;99.90;;;;;;5038598;28;20029;-84
2022/04/02 08:47:54;;;;;;;16.20;9.82;;;0.30;99.90;;;;;;5021587;28;20033;-85
2022/04/02 08:50:31;;;;;;;16.38;8.77;;;0.30;99.90;;;;;;5055646;28;20112;-84
2022/04/02 08:53:14;;;;;;;30.90;12.50;;;0.30;99.90;;;;;;5021108;28;20041;-85
2022/04/02 08:55:56;;;;;;;22.88;12.65;;;0.40;99.90;;;;;;5020566;28;20492;-85
2022/04/02 08:58:49;;;;;;;13.20;7.88;;;0.50;99.90;;;;;;5021317;28;20114;-85
2022/04/02 09:01:24;;;;;;;21.42;12.98;;;0.30;99.90;;;;;;5038165;28;20036;-85
2022/04/02 09:04:21;;;;;;;13.48;8.02;;;0.10;99.90;;;;;;5021384;28;20040;-84
2022/04/02 09:07:06;;;;;;;15.55;7.25;;;0.30;99.90;;;;;;4953615;28;20041;-84
2022/04/02 09:09:50;;;;;;;14.50;7.90;;;0.30;99.90;;;;;;5054320;28;20025;-84
2022/04/02 09:12:33;;;;;;;13.80;7.63;;;0.20;99.90;;;;;;5066973;28;20029;-85
2022/04/02 09:15:15;;;;;;;73.90;32.85;;;0.30;99.90;;;;;;5037429;28;20033;-85
2022/04/02 09:17:53;;;;;;;16.30;8.07;;;0.30;99.90;;;;;;5036786;28;20029;-85
2022/04/02 09:20:57;;;;;;;14.82;8.38;;;0.50;99.90;;;;;;5020588;28;20091;-85
2022/04/02 09:23:44;;;;;;;17.00;8.27;;;0.30;99.90;;;;;;5020723;28;20032;-85
2022/04/02 09:26:33;;;;;;;15.07;7.57;;;0.30;99.90;;;;;;5020853;28;20107;-85
2022/04/02 09:29:28;;;;;;;21.70;8.75;;;0.50;99.90;;;;;;5037302;28;20116;-85
2022/04/02 09:32:31;;;;;;;19.88;7.68;;;0.60;99.90;;;;;;5053759;28;20028;-85
2022/04/02 09:35:33;;;;;;;15.88;7.85;;;0.50;99.90;;;;;;5054117;28;20044;-85
2022/04/02 09:38:30;;;;;;;18.90;8.57;;;0.40;99.90;;;;;;5037480;28;20033;-84
2022/04/02 09:41:13;;;;;;;47.50;22.15;;;0.30;99.90;;;;;;5021032;28;20444;-84
2022/04/02 09:43:57;;;;;;;15.55;7.50;;;0.30;99.90;;;;;;5053773;28;20040;-85
2022/04/02 09:46:33;;;;;;;12.30;8.00;;;0.40;99.90;;;;;;5037431;28;20072;-85
2022/04/02 09:49:08;;;;;;;13.75;8.23;;;0.60;99.90;;;;;;5022575;28;20049;-85
2022/04/02 09:51:35;;;;;;;15.93;8.02;;;0.60;99.90;;;;;;5020486;28;20063;-85
2022/04/02 09:54:26;;;;;;;16.00;9.13;;;0.70;99.90;;;;;;5053474;28;20113;-85
2022/04/02 09:57:00;;;;;;;20.13;10.50;;;0.70;99.90;;;;;;5069786;28;20432;-85
2022/04/02 09:59:56;;;;;;;14.10;9.23;;;0.70;99.90;;;;;;5020660;28;20488;-85
2022/04/02 10:03:03;;;;;;;17.05;8.85;;;0.40;99.90;;;;;;5053394;28;20425;-85
2022/04/02 10:06:11;;;;;;;20.13;9.05;;;0.40;99.90;;;;;;5032957;28;20699;-85
2022/04/02 10:08:57;;;;;;;16.92;9.15;;;0.40;99.90;;;;;;5069990;28;20037;-86
2022/04/02 10:11:28;;;;;;;15.15;9.45;;;0.50;99.90;;;;;;5035329;28;20021;-83
2022/04/02 10:13:58;;;;;;;21.88;9.98;;;0.50;99.90;;;;;;5036119;28;20039;-84
2022/04/02 10:16:25;;;;;;;14.68;9.77;;;0.70;99.90;;;;;;5036134;28;20159;-84
2022/04/02 10:22:41;;;;;;;19.17;10.82;;;0.80;99.90;;;;;;5054307;28;20041;-84
2022/04/02 10:25:10;;;;;;;15.02;9.45;;;0.70;99.90;;;;;;5036305;28;20067;-84
2022/04/02 10:28:30;;;;;;;17.50;9.55;;;0.60;99.90;;;;;;5036335;28;20068;-85
2022/04/02 10:30:57;;;;;;;18.27;10.73;;;0.50;99.90;;;;;;5053063;28;20028;-84
2022/04/02 10:33:34;;;;;;;18.10;10.40;;;0.40;99.90;;;;;;5036529;28;20035;-84
2022/04/02 10:36:03;;;;;;;17.83;10.00;;;0.50;99.90;;;;;;5032671;28;20727;-84
2022/04/02 10:38:39;;;;;;;15.15;9.38;;;0.50;99.90;;;;;;5036052;28;20442;-84
2022/04/02 10:41:10;;;;;;;20.23;10.55;;;0.60;99.90;;;;;;5036354;28;20124;-84
2022/04/02 10:43:49;;;;;;;18.67;10.27;;;0.80;99.90;;;;;;5036061;28;20392;-84
2022/04/02 10:46:19;;;;;;;18.08;9.57;;;1.10;99.90;;;;;;5035704;28;20051;-84
2022/04/02 10:48:47;;;;;;;19.60;10.13;;;1.00;99.90;;;;;;5018856;28;20546;-84
2022/04/02 10:51:14;;;;;;;14.88;9.40;;;1.20;99.90;;;;;;5018878;28;20032;-85
2022/04/02 10:53:44;;;;;;;15.10;9.75;;;1.30;99.90;;;;;;5018631;28;20112;-85
2022/04/02 10:56:24;;;;;;;16.20;10.23;;;1.10;99.90;;;;;;5019586;28;20035;-85
2022/04/02 10:58:54;;;;;;;17.65;9.15;;;1.00;99.90;;;;;;5035865;28;20116;-85
2022/04/02 11:01:22;;;;;;;16.40;9.05;;;1.20;99.90;;;;;;5053505;28;20045;-85
2022/04/02 11:03:56;;;;;;;13.15;8.60;;;1.20;99.90;;;;;;5019026;28;20032;-86
2022/04/02 11:06:48;;;;;;;16.50;10.00;;;0.90;99.90;;;;;;5018863;28;20128;-86
2022/04/02 11:09:30;;;;;;;17.58;10.57;;;1.20;99.90;;;;;;5051794;28;20056;-86
2022/04/02 11:12:07;;;;;;;15.98;9.30;;;1.30;99.90;;;;;;5035642;28;20024;-85
2022/04/02 11:14:37;;;;;;;17.80;10.50;;;1.50;99.90;;;;;;5052324;28;20071;-85
2022/04/02 11:17:03;;;;;;;14.90;10.23;;;1.60;99.90;;;;;;5017340;28;20983;-85
2022/04/02 11:22:29;;;;;;;17.02;10.65;;;1.10;99.90;;;;;;5051316;28;20044;-85
2022/04/02 11:25:03;;;;;;;18.17;9.95;;;1.20;99.90;;;;;;5034983;28;20193;-82
2022/04/02 11:27:30;;;;;;;18.58;10.45;;;1.30;99.90;;;;;;5034569;28;20532;-81
2022/04/02 11:30:03;;;;;;;13.93;8.80;;;1.60;99.90;;;;;;5034271;28;20476;-82
2022/04/02 11:32:38;;;;;;;23.50;11.88;;;1.90;99.90;;;;;;5034762;28;20492;-82
2022/04/02 11:35:08;;;;;;;17.05;10.05;;;1.90;99.90;;;;;;5034629;28;20032;-84
2022/04/02 11:38:17;;;;;;;20.63;10.80;;;1.80;99.90;;;;;;5034744;28;20680;-84
2022/04/02 11:40:54;;;;;;;14.03;10.27;;;1.50;99.90;;;;;;4958880;28;20121;-83
2022/04/02 11:43:40;;;;;;;15.80;10.45;;;1.40;99.90;;;;;;5041425;28;20060;-83
2022/04/02 11:46:10;;;;;;;18.13;10.90;;;1.90;99.90;;;;;;5018115;28;20128;-83
2022/04/02 11:48:51;;;;;;;20.75;11.10;;;2.10;99.90;;;;;;5034150;28;20055;-83
2022/04/02 11:51:23;;;;;;;21.92;11.18;;;2.20;99.90;;;;;;5018192;28;20033;-80
2022/04/02 11:53:50;;;;;;;14.57;9.45;;;1.80;99.90;;;;;;5052234;28;20025;-83
2022/04/02 11:56:32;;;;;;;17.08;9.90;;;1.60;99.90;;;;;;5034441;28;20033;-82
2022/04/02 11:59:05;;;;;;;21.55;11.38;;;1.40;99.90;;;;;;5034251;28;20033;-83
2022/04/02 12:01:46;;;;;;;20.63;11.15;;;1.60;99.90;;;;;;5014832;28;20443;-82
2022/04/02 12:04:14;;;;;;;17.25;10.48;;;1.50;99.90;;;;;;5018114;28;20504;-82
2022/04/02 12:06:42;;;;;;;16.70;10.20;;;1.50;99.90;;;;;;5040462;28;20036;-83
2022/04/02 12:09:13;;;;;;;17.38;10.20;;;1.90;99.90;;;;;;5040493;28;20029;-83
2022/04/02 12:11:42;;;;;;;18.98;11.13;;;1.90;99.90;;;;;;5059054;28;20036;-83
2022/04/02 12:14:07;;;;;;;23.95;11.18;;;2.20;99.90;;;;;;5040865;28;20124;-83
2022/04/02 12:16:34;;;;;;;22.80;12.40;;;2.30;99.90;;;;;;5040903;28;20132;-83
2022/04/02 12:19:02;;;;;;;22.15;10.57;;;2.40;99.90;;;;;;5040884;28;20024;-83
2022/04/02 12:21:32;;;;;;;19.35;11.60;;;2.60;99.90;;;;;;5040903;28;20434;-83
2022/04/02 12:24:01;;;;;;;19.55;12.20;;;2.10;99.90;;;;;;5040671;28;20033;-83
2022/04/02 12:26:28;;;;;;;18.25;11.13;;;1.90;99.90;;;;;;5024366;28;20052;-83
2022/04/02 12:29:00;;;;;;;17.63;11.05;;;1.90;99.90;;;;;;5058353;28;20059;-82
2022/04/02 12:31:29;;;;;;;16.77;10.27;;;2.30;99.90;;;;;;5040385;28;20053;-82
2022/04/02 12:33:55;;;;;;;23.83;11.45;;;2.60;99.90;;;;;;5058131;28;20029;-82
2022/04/02 12:36:33;;;;;;;16.27;9.88;;;2.70;99.90;;;;;;5040660;28;20392;-82
2022/04/02 12:39:05;;;;;;;17.38;10.43;;;2.60;99.90;;;;;;5040181;28;20041;-83
2022/04/02 12:41:32;;;;;;;17.30;10.90;;;2.30;99.90;;;;;;5040702;28;20369;-83
2022/04/02 12:44:03;;;;;;;15.15;10.77;;;2.50;99.90;;;;;;5040201;28;20067;-82
2022/04/02 12:46:30;;;;;;;47.78;23.38;;;2.70;99.90;;;;;;5040350;28;20182;-82
2022/04/02 12:48:58;;;;;;;31.05;15.85;;;2.90;99.90;;;;;;5035530;28;20123;-83
2022/04/02 12:51:25;;;;;;;16.40;10.93;;;3.20;99.90;;;;;;5039970;28;20040;-82
2022/04/02 12:54:01;;;;;;;30.20;15.45;;;3.30;99.90;;;;;;5024015;28;20029;-82
2022/04/02 12:56:28;;;;;;;24.38;13.43;;;2.80;99.90;;;;;;5037134;28;20424;-81
2022/04/02 12:58:56;;;;;;;35.90;17.00;;;2.70;99.90;;;;;;5040263;28;20059;-82
2022/04/02 13:01:27;;;;;;;31.00;15.50;;;3.20;99.90;;;;;;5040667;28;20039;-81
2022/04/02 13:04:00;;;;;;;21.80;12.43;;;3.10;99.90;;;;;;5023978;28;20078;-81
2022/04/02 13:06:28;;;;;;;39.35;20.67;;;2.70;99.90;;;;;;5040381;28;20051;-82
2022/04/02 13:08:56;;;;;;;17.55;12.27;;;2.80;99.90;;;;;;5040378;28;20039;-81